createdAt,value
2023-04-14T03:59:05.077Z,0.00
2023-04-14T04:00:05.030Z,0.00
2023-04-14T04:01:05.052Z,0.00
2023-04-14T04:02:05.128Z,0.00
2023-04-14T04:03:05.241Z,0.00
2023-04-14T04:04:05.118Z,0.00
2023-04-14T04:05:05.180Z,0.00
2023-04-14T04:06:04.986Z,0.00
2023-04-14T04:07:05.021Z,0.00
2023-04-14T04:08:04.995Z,0.00
2023-04-14T04:09:04.964Z,0.00
2023-04-14T04:10:04.978Z,0.00
2023-04-14T04:11:05.303Z,0.00
2023-04-14T04:12:04.953Z,0.00
2023-04-14T04:13:04.938Z,0.00
2023-04-14T04:14:04.943Z,0.00
2023-04-14T04:15:04.966Z,0.00
2023-04-14T04:16:04.996Z,0.00
2023-04-14T04:17:04.938Z,0.00
2023-04-14T04:18:04.911Z,0.00
2023-04-14T04:19:04.913Z,0.00
2023-04-14T04:20:06.814Z,0.00
2023-04-14T04:21:04.901Z,0.00
2023-04-14T04:22:04.931Z,0.00
2023-04-14T04:23:04.904Z,0.00
2023-04-14T04:24:04.896Z,0.00
2023-04-14T04:25:04.898Z,0.00
2023-04-14T04:26:04.890Z,0.00
2023-04-14T04:27:07.877Z,0.00
2023-04-14T04:28:04.871Z,0.00
2023-04-14T04:29:04.861Z,0.00
2023-04-14T04:30:04.897Z,0.00
2023-04-14T04:31:04.890Z,0.00
2023-04-14T04:32:04.887Z,0.00
2023-04-14T04:33:04.859Z,0.00
2023-04-14T04:34:04.864Z,0.00
2023-04-14T04:35:04.850Z,0.00
2023-04-14T04:36:04.857Z,0.00
2023-04-14T04:37:04.831Z,0.00
2023-04-14T04:38:04.821Z,0.00
2023-04-14T04:39:04.816Z,0.00
2023-04-14T04:40:04.822Z,0.00
2023-04-14T04:41:04.837Z,0.00
2023-04-14T04:42:04.812Z,0.00
2023-04-14T04:43:04.792Z,5.63
2023-04-14T04:44:04.810Z,5.63
2023-04-14T04:45:04.821Z,5.63
2023-04-14T04:46:04.846Z,5.63
2023-04-14T04:47:04.808Z,5.63
2023-04-14T04:48:04.844Z,5.63
2023-04-14T04:49:04.787Z,5.63
2023-04-14T04:50:04.774Z,5.63
2023-04-14T04:51:04.766Z,5.63
2023-04-14T04:52:04.766Z,5.63
2023-04-14T04:53:04.770Z,5.63
2023-04-14T04:54:04.771Z,5.63
2023-04-14T04:55:04.751Z,5.63
2023-04-14T04:56:04.743Z,11.25
2023-04-14T04:57:04.750Z,11.25
2023-04-14T04:58:04.739Z,11.25
2023-04-14T04:59:04.739Z,11.25
2023-04-14T05:00:04.749Z,11.25
2023-04-14T05:01:04.772Z,11.25
2023-04-14T05:02:04.788Z,11.25
2023-04-14T05:03:04.797Z,16.88
2023-04-14T05:04:04.749Z,16.88
2023-04-14T05:05:04.741Z,16.88
2023-04-14T05:06:04.716Z,16.88
2023-04-14T05:07:04.716Z,16.88
2023-04-14T05:08:04.727Z,16.88
2023-04-14T05:09:04.715Z,16.88
2023-04-14T05:10:04.720Z,16.88
2023-04-14T05:11:04.718Z,16.88
2023-04-14T05:12:04.693Z,22.50
2023-04-14T05:13:04.724Z,22.50
2023-04-14T05:14:04.680Z,22.50
2023-04-14T05:15:04.667Z,22.50
2023-04-14T05:16:04.756Z,22.50
2023-04-14T05:17:04.673Z,22.50
2023-04-14T05:18:04.746Z,22.50
2023-04-14T05:19:04.689Z,28.13
2023-04-14T05:20:04.657Z,28.13
2023-04-14T05:21:04.676Z,28.13
2023-04-14T05:22:04.660Z,28.13
2023-04-14T05:23:04.666Z,28.13
2023-04-14T05:24:04.636Z,28.13
2023-04-14T05:25:04.633Z,33.75
2023-04-14T05:26:26.893Z,33.75
2023-04-14T05:27:12.997Z,33.75
2023-04-14T05:28:04.633Z,33.75
2023-04-14T05:29:04.652Z,33.75
2023-04-14T05:30:04.667Z,33.75
2023-04-14T05:31:04.637Z,39.38
2023-04-14T05:32:04.620Z,39.38
2023-04-14T05:33:04.705Z,39.38
2023-04-14T05:34:04.612Z,39.38
2023-04-14T05:35:04.638Z,39.38
2023-04-14T05:36:04.588Z,45.00
2023-04-14T05:37:04.584Z,45.00
2023-04-14T05:38:04.615Z,45.00
2023-04-14T05:39:04.619Z,45.00
2023-04-14T05:40:04.621Z,45.00
2023-04-14T05:41:04.572Z,45.00
2023-04-14T05:42:04.618Z,45.00
2023-04-14T05:43:04.574Z,50.63
2023-04-14T05:44:04.876Z,50.63
2023-04-14T05:45:04.555Z,50.63
2023-04-14T05:46:04.815Z,56.25
2023-04-14T05:47:05.471Z,56.25
2023-04-14T05:48:05.420Z,56.25
2023-04-14T05:49:04.558Z,61.88
2023-04-14T05:50:04.596Z,61.88
2023-04-14T05:51:04.607Z,61.88
2023-04-14T05:52:04.613Z,67.50
2023-04-14T05:53:04.548Z,67.50
2023-04-14T05:54:04.666Z,67.50
2023-04-14T05:55:04.535Z,67.50
2023-04-14T05:56:04.521Z,73.13
2023-04-14T05:57:04.560Z,73.13
2023-04-14T05:58:05.428Z,73.13
2023-04-14T05:59:04.546Z,73.13
2023-04-14T06:00:04.550Z,73.13
2023-04-14T06:01:04.557Z,78.75
2023-04-14T06:02:05.023Z,78.75
2023-04-14T06:03:04.710Z,78.75
2023-04-14T06:04:05.783Z,78.75
2023-04-14T06:05:04.630Z,78.75
2023-04-14T06:06:04.534Z,84.38
2023-04-14T06:07:04.526Z,84.38
2023-04-14T06:08:04.575Z,84.38
2023-04-14T06:09:06.412Z,84.38
2023-04-14T06:10:04.487Z,84.38
2023-04-14T06:11:04.551Z,84.38
2023-04-14T06:12:04.605Z,84.38
2023-04-14T06:13:04.507Z,84.38
2023-04-14T06:14:04.470Z,90.00
2023-04-14T06:15:04.488Z,90.00
2023-04-14T06:16:04.495Z,90.00
2023-04-14T06:17:04.449Z,90.00
2023-04-14T06:18:04.971Z,90.00
2023-04-14T06:19:05.408Z,95.63
2023-04-14T06:20:04.466Z,95.63
2023-04-14T06:21:04.487Z,95.63
2023-04-14T06:24:37.138Z,101.25
2023-04-14T06:25:37.060Z,101.25
2023-04-14T06:26:37.042Z,101.25
2023-04-14T06:27:37.043Z,101.25
2023-04-14T06:28:37.103Z,101.25
2023-04-14T06:29:37.088Z,101.25
2023-04-14T06:30:37.023Z,101.25
2023-04-14T06:31:37.042Z,106.88
2023-04-14T06:32:37.075Z,106.88
2023-04-14T06:33:37.038Z,106.88
2023-04-14T06:34:38.169Z,106.88
2023-04-14T06:35:37.022Z,106.88
2023-04-14T06:36:37.009Z,106.88
2023-04-14T06:37:37.030Z,106.88
2023-04-14T06:38:37.111Z,112.50
2023-04-14T06:39:37.040Z,112.50
2023-04-14T06:40:37.046Z,112.50
2023-04-14T06:41:37.028Z,112.50
2023-04-14T06:42:36.989Z,112.50
2023-04-14T06:43:37.028Z,112.50
2023-04-14T06:44:36.966Z,112.50
2023-04-14T06:45:37.071Z,112.50
2023-04-14T06:46:37.765Z,112.50
2023-04-14T06:47:37.059Z,112.50
2023-04-14T06:48:36.976Z,112.50
2023-04-14T06:49:36.988Z,112.50
2023-04-14T06:50:36.976Z,118.13
2023-04-14T06:51:36.982Z,118.13
2023-04-14T06:52:36.951Z,118.13
2023-04-14T06:53:36.949Z,118.13
2023-04-14T06:54:36.982Z,118.13
2023-04-14T06:55:37.369Z,118.13
2023-04-14T06:56:36.978Z,118.13
2023-04-14T06:57:36.978Z,118.13
2023-04-14T06:58:37.037Z,118.13
2023-04-14T06:59:36.937Z,118.13
2023-04-14T07:00:36.965Z,118.13
2023-04-14T07:01:36.959Z,118.13
2023-04-14T07:02:37.152Z,118.13
2023-04-14T07:03:37.102Z,118.13
2023-04-14T07:04:36.977Z,118.13
2023-04-14T07:05:36.926Z,118.13
2023-04-14T07:06:36.931Z,118.13
2023-04-14T07:07:36.914Z,118.13
2023-04-14T07:08:36.929Z,118.13
2023-04-14T07:09:36.932Z,118.13
2023-04-14T07:10:36.961Z,118.13
2023-04-14T07:11:37.088Z,118.13
2023-04-14T07:12:36.920Z,123.75
2023-04-14T07:13:36.934Z,123.75
2023-04-14T07:14:36.919Z,123.75
2023-04-14T07:15:36.935Z,123.75
2023-04-14T07:16:36.895Z,123.75
2023-04-14T07:17:36.928Z,123.75
2023-04-14T07:18:36.912Z,123.75
2023-04-14T07:19:36.910Z,123.75
2023-04-14T07:20:36.922Z,123.75
2023-04-14T07:21:36.894Z,123.75
2023-04-14T07:22:36.914Z,123.75
2023-04-14T07:23:36.931Z,123.75
2023-04-14T07:24:36.907Z,123.75
2023-04-14T07:25:36.900Z,123.75
2023-04-14T07:26:36.901Z,123.75
2023-04-14T07:27:36.905Z,123.75
2023-04-14T07:28:37.053Z,123.75
2023-04-14T07:29:37.625Z,123.75
2023-04-14T07:30:36.933Z,123.75
2023-04-14T07:31:37.055Z,123.75
2023-04-14T07:32:36.939Z,123.75
2023-04-14T07:33:36.912Z,123.75
2023-04-14T07:34:36.895Z,123.75
2023-04-14T07:35:36.880Z,123.75
2023-04-14T07:36:36.890Z,123.75
2023-04-14T07:37:36.886Z,123.75
2023-04-14T07:38:36.944Z,123.75
2023-04-14T07:39:36.920Z,123.75
2023-04-14T07:40:38.370Z,123.75
2023-04-14T07:41:36.924Z,123.75
2023-04-14T07:42:36.876Z,123.75
2023-04-14T07:43:36.919Z,123.75
2023-04-14T07:44:36.935Z,123.75
2023-04-14T07:45:36.887Z,123.75
2023-04-14T07:46:36.972Z,123.75
2023-04-14T07:47:36.948Z,123.75
2023-04-14T07:48:36.860Z,123.75
2023-04-14T07:49:37.040Z,123.75
2023-04-14T07:50:36.902Z,123.75
2023-04-14T07:51:37.114Z,123.75
2023-04-14T07:52:36.946Z,123.75
2023-04-14T07:53:37.080Z,123.75
2023-04-14T07:54:36.848Z,123.75
2023-04-14T07:55:37.016Z,123.75
2023-04-14T07:56:37.131Z,123.75
2023-04-14T07:57:37.044Z,123.75
2023-04-14T07:58:36.959Z,123.75
2023-04-14T07:59:36.858Z,123.75
2023-04-14T08:00:36.997Z,123.75
2023-04-14T08:01:36.933Z,123.75
2023-04-14T08:02:37.027Z,123.75
2023-04-14T08:03:37.018Z,123.75
2023-04-14T08:04:36.875Z,123.75
2023-04-14T08:05:36.995Z,123.75
2023-04-14T08:06:36.855Z,123.75
2023-04-14T08:07:36.859Z,123.75
2023-04-14T08:08:36.907Z,123.75
2023-04-14T08:09:36.828Z,123.75
2023-04-14T08:10:36.910Z,123.75
2023-04-14T08:11:36.921Z,123.75
2023-04-14T08:12:36.850Z,123.75
2023-04-14T08:13:36.855Z,123.75
2023-04-14T08:14:36.849Z,123.75
2023-04-14T08:15:36.851Z,118.13
2023-04-14T08:16:37.308Z,118.13
2023-04-14T08:17:36.879Z,118.13
2023-04-14T08:18:36.863Z,118.13
2023-04-14T08:19:36.848Z,118.13
2023-04-14T08:20:36.878Z,118.13
2023-04-14T08:21:36.856Z,118.13
2023-04-14T08:22:36.814Z,118.13
2023-04-14T08:23:36.868Z,118.13
2023-04-14T08:24:37.906Z,118.13
2023-04-14T08:25:36.804Z,118.13
2023-04-14T08:26:36.830Z,118.13
2023-04-14T08:27:36.912Z,118.13
2023-04-14T08:28:36.928Z,118.13
2023-04-14T08:29:36.824Z,118.13
2023-04-14T08:30:36.812Z,118.13
2023-04-14T08:31:36.907Z,118.13
2023-04-14T08:32:36.908Z,118.13
2023-04-14T08:33:36.975Z,118.13
2023-04-14T08:34:36.870Z,118.13
2023-04-14T08:35:41.606Z,118.13
2023-04-14T08:36:36.862Z,118.13
2023-04-14T08:37:36.797Z,118.13
2023-04-14T08:38:37.001Z,118.13
2023-04-14T08:39:36.795Z,112.50
2023-04-14T08:40:37.925Z,112.50
2023-04-14T08:41:36.868Z,112.50
2023-04-14T08:42:36.853Z,112.50
2023-04-14T08:43:36.949Z,112.50
2023-04-14T08:44:36.849Z,112.50
2023-04-14T08:45:36.895Z,112.50
2023-04-14T08:46:36.848Z,112.50
2023-04-14T08:47:37.005Z,112.50
2023-04-14T08:48:36.872Z,112.50
2023-04-14T08:49:36.795Z,112.50
2023-04-14T08:50:36.806Z,112.50
2023-04-14T08:51:36.826Z,112.50
2023-04-14T08:52:36.834Z,112.50
2023-04-14T08:53:36.801Z,112.50
2023-04-14T08:54:36.791Z,112.50
2023-04-14T08:55:36.808Z,112.50
2023-04-14T08:56:36.818Z,112.50
2023-04-14T08:57:36.782Z,112.50
2023-04-14T08:58:36.823Z,112.50
2023-04-14T08:59:36.869Z,112.50
2023-04-14T09:00:36.785Z,112.50
2023-04-14T09:01:36.854Z,112.50
2023-04-14T09:02:36.885Z,112.50
2023-04-14T09:03:37.002Z,112.50
2023-04-14T09:04:36.937Z,112.50
2023-04-14T09:05:36.790Z,112.50
2023-04-14T09:06:36.827Z,112.50
2023-04-14T09:07:36.850Z,112.50
2023-04-14T09:08:36.808Z,112.50
2023-04-14T09:09:36.810Z,112.50
2023-04-14T09:10:36.857Z,112.50
2023-04-14T09:11:36.787Z,112.50
2023-04-14T09:12:38.169Z,112.50
2023-04-14T09:15:09.338Z,112.50
2023-04-14T09:16:09.304Z,112.50
2023-04-14T09:17:09.365Z,112.50
2023-04-14T09:18:09.833Z,112.50
2023-04-14T09:19:10.148Z,112.50
2023-04-14T09:20:35.654Z,112.50
2023-04-14T09:21:37.163Z,112.50
2023-04-14T09:22:09.361Z,112.50
2023-04-14T09:23:09.667Z,112.50
2023-04-14T09:24:11.014Z,112.50
2023-04-14T09:25:09.393Z,112.50
2023-04-14T09:26:09.390Z,112.50
2023-04-14T09:27:09.409Z,112.50
2023-04-14T09:28:09.318Z,112.50
2023-04-14T09:29:09.384Z,112.50
2023-04-14T09:30:09.346Z,112.50
2023-04-14T09:31:09.334Z,112.50
2023-04-14T09:32:09.440Z,112.50
2023-04-14T09:33:09.604Z,112.50
2023-04-14T09:34:09.789Z,112.50
2023-04-14T09:35:09.340Z,112.50
2023-04-14T09:36:09.383Z,118.13
2023-04-14T09:37:09.470Z,118.13
2023-04-14T09:38:09.540Z,118.13
2023-04-14T09:39:09.376Z,118.13
2023-04-14T09:40:09.351Z,118.13
2023-04-14T09:41:09.306Z,118.13
2023-04-14T09:42:09.399Z,118.13
2023-04-14T09:43:09.330Z,118.13
2023-04-14T09:44:09.345Z,118.13
2023-04-14T09:45:09.321Z,118.13
2023-04-14T09:46:09.407Z,118.13
2023-04-14T09:47:09.337Z,118.13
2023-04-14T09:48:09.429Z,118.13
2023-04-14T09:49:09.361Z,118.13
2023-04-14T09:50:09.308Z,118.13
2023-04-14T09:51:09.324Z,123.75
2023-04-14T09:52:09.353Z,123.75
2023-04-14T09:53:09.329Z,123.75
2023-04-14T09:54:09.331Z,123.75
2023-04-14T09:55:09.312Z,123.75
2023-04-14T09:56:09.309Z,123.75
2023-04-14T09:57:09.301Z,129.38
2023-04-14T09:58:09.318Z,129.38
2023-04-14T09:59:09.324Z,129.38
2023-04-14T10:00:09.335Z,129.38
2023-04-14T10:01:09.336Z,129.38
2023-04-14T10:02:09.431Z,135.00
2023-04-14T10:13:29.540Z,151.88
2023-04-14T10:14:29.511Z,151.88
2023-04-14T10:15:29.500Z,151.88
2023-04-14T10:16:29.878Z,157.50
2023-04-14T10:17:30.337Z,157.50
2023-04-14T10:18:29.524Z,157.50
2023-04-14T10:19:29.495Z,157.50
2023-04-14T10:20:29.492Z,157.50
2023-04-14T10:21:29.515Z,157.50
2023-04-14T10:22:29.501Z,151.88
2023-04-14T10:23:29.535Z,151.88
2023-04-14T10:24:30.285Z,151.88
2023-04-14T10:25:29.501Z,151.88
2023-04-14T10:26:29.522Z,157.50
2023-04-14T10:27:30.312Z,157.50
2023-04-14T10:28:29.491Z,163.13
2023-04-14T10:29:29.549Z,163.13
2023-04-14T10:30:29.502Z,163.13
2023-04-14T10:31:29.593Z,168.75
2023-04-14T10:33:29.513Z,174.38
2023-04-14T10:34:29.535Z,174.38
2023-04-14T10:35:29.567Z,174.38
2023-04-14T10:36:29.495Z,174.38
2023-04-14T10:37:29.504Z,174.38
2023-04-14T10:38:30.248Z,180.00
2023-04-14T10:39:29.545Z,180.00
2023-04-14T10:40:29.550Z,180.00
2023-04-14T10:41:29.524Z,180.00
2023-04-14T10:42:29.543Z,185.63
2023-04-14T10:43:29.530Z,180.00
2023-04-14T10:44:29.672Z,180.00
2023-04-14T10:45:29.575Z,185.63
2023-04-14T10:46:29.574Z,191.25
2023-04-14T10:47:29.640Z,191.25
2023-04-14T10:48:29.589Z,196.88
2023-04-14T10:49:29.591Z,202.50
2023-04-14T10:50:29.548Z,208.13
2023-04-14T10:51:29.575Z,202.50
2023-04-14T10:52:29.530Z,202.50
2023-04-14T10:53:29.571Z,202.50
2023-04-14T10:54:29.554Z,208.13
2023-04-14T10:55:29.577Z,208.13
2023-04-14T10:56:29.554Z,213.75
2023-04-14T10:57:29.697Z,219.38
2023-04-14T10:58:29.612Z,219.38
2023-04-14T10:59:29.544Z,219.38
2023-04-14T11:00:29.550Z,225.00
2023-04-14T11:01:29.677Z,225.00
2023-04-14T11:02:29.885Z,225.00
2023-04-14T11:03:29.700Z,225.00
2023-04-14T11:04:29.800Z,219.38
2023-04-14T11:05:29.660Z,219.38
2023-04-14T11:06:29.685Z,219.38
2023-04-14T11:07:29.656Z,225.00
2023-04-14T11:08:29.587Z,225.00
2023-04-14T11:09:29.706Z,230.63
2023-04-14T11:10:29.608Z,230.63
2023-04-14T11:11:29.601Z,236.25
2023-04-14T11:12:29.678Z,236.25
2023-04-14T11:13:29.725Z,236.25
2023-04-14T11:14:29.618Z,236.25
2023-04-14T11:15:29.630Z,241.88
2023-04-14T11:16:29.713Z,247.50
2023-04-14T11:17:29.687Z,253.13
2023-04-14T11:18:29.680Z,253.13
2023-04-14T11:19:29.652Z,258.75
2023-04-14T11:20:29.671Z,258.75
2023-04-14T11:21:29.707Z,264.38
2023-04-14T11:22:30.281Z,270.00
2023-04-14T11:23:29.664Z,241.88
2023-04-14T11:24:29.633Z,264.38
2023-04-14T11:25:29.660Z,275.63
2023-04-14T11:26:29.689Z,275.63
2023-04-14T11:27:29.642Z,281.25
2023-04-14T11:28:29.649Z,292.50
2023-04-14T11:29:29.629Z,298.13
2023-04-14T11:30:29.680Z,309.38
2023-04-14T11:31:29.710Z,315.00
2023-04-14T11:32:29.655Z,320.63
2023-04-14T11:33:29.760Z,326.25
2023-04-14T11:34:30.286Z,326.25
2023-04-14T11:35:29.667Z,264.38
2023-04-14T11:36:29.677Z,253.13
2023-04-14T11:37:29.735Z,286.88
2023-04-14T11:38:29.698Z,343.13
2023-04-14T11:39:29.703Z,343.13
2023-04-14T11:40:29.724Z,354.38
2023-04-14T11:41:29.687Z,292.50
2023-04-14T11:42:29.679Z,225.00
2023-04-14T11:43:29.730Z,241.88
2023-04-14T11:44:29.716Z,247.50
2023-04-14T11:45:29.692Z,230.63
2023-04-14T11:46:29.778Z,230.63
2023-04-14T11:47:29.739Z,281.25
2023-04-14T11:48:29.704Z,247.50
2023-04-14T11:49:29.777Z,365.63
2023-04-14T11:50:29.712Z,433.13
2023-04-14T11:51:29.716Z,433.13
2023-04-14T11:52:29.734Z,416.25
2023-04-14T11:53:29.805Z,416.25
2023-04-14T11:54:29.897Z,309.38
2023-04-14T11:55:29.753Z,337.50
2023-04-14T11:56:29.751Z,376.88
2023-04-14T11:57:29.752Z,208.13
2023-04-14T11:58:29.771Z,196.88
2023-04-14T11:59:29.809Z,180.00
2023-04-14T12:00:29.772Z,174.38
2023-04-14T12:01:29.788Z,180.00
2023-04-14T12:02:29.867Z,180.00
2023-04-14T12:03:30.491Z,191.25
2023-04-14T12:04:30.045Z,213.75
2023-04-14T12:05:29.962Z,292.50
2023-04-14T12:06:29.851Z,320.63
2023-04-14T12:07:29.788Z,241.88
2023-04-14T12:08:29.803Z,270.00
2023-04-14T12:09:29.804Z,495.00
2023-04-14T12:10:29.806Z,523.13
2023-04-14T12:11:29.796Z,568.13
2023-04-14T12:12:29.804Z,556.88
2023-04-14T12:13:29.832Z,444.38
2023-04-14T12:14:29.824Z,540.00
2023-04-14T12:15:29.826Z,556.88
2023-04-14T12:16:29.897Z,556.88
2023-04-14T12:17:29.888Z,573.75
2023-04-14T12:18:29.836Z,568.13
2023-04-14T12:19:29.850Z,562.50
2023-04-14T12:20:29.880Z,213.75
2023-04-14T12:21:29.887Z,202.50
2023-04-14T12:22:29.836Z,202.50
2023-04-14T12:23:29.882Z,202.50
2023-04-14T12:24:29.916Z,208.13
2023-04-14T12:25:29.840Z,213.75
2023-04-14T12:26:29.860Z,225.00
2023-04-14T12:27:29.876Z,230.63
2023-04-14T12:28:29.893Z,253.13
2023-04-14T12:29:29.874Z,517.50
2023-04-14T12:30:29.887Z,562.50
2023-04-14T12:31:30.074Z,275.63
2023-04-14T12:32:29.942Z,275.63
2023-04-14T12:33:29.903Z,281.25
2023-04-14T12:34:29.882Z,286.88
2023-04-14T12:35:29.929Z,331.88
2023-04-14T12:36:45.319Z,691.88
2023-04-14T12:37:29.902Z,714.38
2023-04-14T12:38:29.960Z,421.88
2023-04-14T12:39:29.917Z,742.50
2023-04-14T12:40:29.948Z,742.50
2023-04-14T12:41:29.908Z,736.88
2023-04-14T12:42:29.931Z,736.88
2023-04-14T12:43:29.934Z,720.00
2023-04-14T12:44:29.975Z,708.75
2023-04-14T12:45:30.282Z,708.75
2023-04-14T12:46:29.961Z,697.50
2023-04-14T12:47:29.952Z,703.13
2023-04-14T12:48:29.958Z,703.13
2023-04-14T12:49:29.945Z,703.13
2023-04-14T12:50:29.934Z,697.50
2023-04-14T12:51:29.951Z,534.38
2023-04-14T12:52:29.945Z,708.75
2023-04-14T12:53:29.970Z,708.75
2023-04-14T12:54:29.962Z,720.00
2023-04-14T12:55:30.027Z,725.63
2023-04-14T12:56:29.998Z,731.25
2023-04-14T12:57:29.981Z,731.25
2023-04-14T12:58:29.995Z,731.25
2023-04-14T12:59:30.028Z,742.50
2023-04-14T13:00:30.048Z,748.13
2023-04-14T13:04:02.649Z,742.50
2023-04-14T13:05:02.576Z,725.63
2023-04-14T13:06:02.567Z,725.63
2023-04-14T13:07:02.598Z,720.00
2023-04-14T13:08:02.589Z,714.38
2023-04-14T13:09:02.832Z,714.38
2023-04-14T13:10:02.612Z,714.38
2023-04-14T13:11:02.596Z,720.00
2023-04-14T13:12:02.579Z,714.38
2023-04-14T13:13:02.590Z,720.00
2023-04-14T13:14:02.622Z,725.63
2023-04-14T13:15:02.602Z,731.25
2023-04-14T13:16:13.138Z,725.63
2023-04-14T13:17:02.644Z,725.63
2023-04-14T13:18:02.661Z,731.25
2023-04-14T13:19:02.895Z,731.25
2023-04-14T13:20:02.663Z,736.88
2023-04-14T13:21:02.637Z,742.50
2023-04-14T13:22:02.682Z,753.75
2023-04-14T13:23:02.663Z,753.75
2023-04-14T13:24:02.688Z,765.00
2023-04-14T13:25:02.675Z,759.38
2023-04-14T13:26:02.684Z,759.38
2023-04-14T13:27:02.707Z,753.75
2023-04-14T13:28:02.701Z,748.13
2023-04-14T13:29:03.134Z,607.50
2023-04-14T13:30:02.721Z,253.13
2023-04-14T13:31:02.721Z,360.00
2023-04-14T13:32:02.772Z,658.13
2023-04-14T13:33:02.835Z,500.63
2023-04-14T13:34:02.750Z,736.88
2023-04-14T13:35:02.782Z,731.25
2023-04-14T13:36:03.036Z,742.50
2023-04-14T13:37:02.815Z,736.88
2023-04-14T13:38:02.775Z,731.25
2023-04-14T13:39:03.018Z,720.00
2023-04-14T13:40:02.789Z,714.38
2023-04-14T13:41:02.820Z,686.25
2023-04-14T13:42:02.828Z,708.75
2023-04-14T13:43:02.830Z,635.63
2023-04-14T13:44:02.816Z,528.75
2023-04-14T13:45:02.818Z,753.75
2023-04-14T13:46:02.894Z,759.38
2023-04-14T13:47:02.884Z,765.00
2023-04-14T13:48:02.922Z,765.00
2023-04-14T13:49:03.225Z,759.38
2023-04-14T13:50:02.867Z,765.00
2023-04-14T13:51:02.874Z,770.63
2023-04-14T13:52:02.938Z,770.63
2023-04-14T13:53:02.884Z,765.00
2023-04-14T13:54:02.915Z,382.50
2023-04-14T13:55:02.889Z,376.88
2023-04-14T13:56:02.954Z,326.25
2023-04-14T13:57:02.940Z,354.38
2023-04-14T13:58:02.942Z,337.50
2023-04-14T13:59:03.037Z,343.13
2023-04-14T14:00:02.958Z,343.13
2023-04-14T14:01:02.959Z,371.25
2023-04-14T14:02:03.098Z,438.75
2023-04-14T14:03:03.120Z,517.50
2023-04-14T14:04:03.275Z,731.25
2023-04-14T14:05:02.995Z,736.88
2023-04-14T14:06:03.005Z,748.13
2023-04-14T14:07:03.007Z,753.75
2023-04-14T14:08:02.989Z,742.50
2023-04-14T14:09:05.659Z,736.88
2023-04-14T14:10:02.996Z,736.88
2023-04-14T14:11:03.012Z,736.88
2023-04-14T14:12:03.028Z,736.88
2023-04-14T14:13:03.045Z,742.50
2023-04-14T14:14:03.277Z,742.50
2023-04-14T14:15:03.118Z,753.75
2023-04-14T14:16:03.054Z,759.38
2023-04-14T14:17:03.059Z,753.75
2023-04-14T14:18:03.155Z,748.13
2023-04-14T14:19:03.306Z,742.50
2023-04-14T14:20:03.104Z,742.50
2023-04-14T14:21:03.097Z,742.50
2023-04-14T14:22:03.073Z,753.75
2023-04-14T14:23:03.120Z,759.38
2023-04-14T14:24:03.436Z,770.63
2023-04-14T14:25:17.411Z,781.88
2023-04-14T14:26:03.121Z,821.25
2023-04-14T14:27:03.124Z,877.50
2023-04-14T14:28:03.153Z,950.63
2023-04-14T14:29:03.189Z,1080.00
2023-04-14T14:30:03.145Z,1175.63
2023-04-14T14:31:04.960Z,1293.75
2023-04-14T14:32:03.159Z,1423.13
2023-04-14T14:33:03.248Z,1361.25
2023-04-14T14:34:03.503Z,1501.88
2023-04-14T14:35:03.227Z,1040.63
2023-04-14T14:36:03.191Z,523.13
2023-04-14T14:37:03.203Z,506.25
2023-04-14T14:38:03.252Z,410.63
2023-04-14T14:39:03.253Z,641.25
2023-04-14T14:40:03.276Z,410.63
2023-04-14T14:41:03.277Z,500.63
2023-04-14T14:42:03.242Z,292.50
2023-04-14T14:43:03.272Z,236.25
2023-04-14T14:44:03.599Z,213.75
2023-04-14T14:45:03.306Z,196.88
2023-04-14T14:46:03.404Z,191.25
2023-04-14T14:47:03.499Z,180.00
2023-04-14T14:48:03.309Z,174.38
2023-04-14T14:49:03.343Z,163.13
2023-04-14T14:50:05.934Z,163.13
2023-04-14T14:51:03.306Z,163.13
2023-04-14T14:52:03.300Z,163.13
2023-04-14T14:53:03.279Z,163.13
2023-04-14T14:54:09.823Z,163.13
2023-04-14T14:55:03.261Z,163.13
2023-04-14T14:56:03.306Z,174.38
2023-04-14T14:57:03.282Z,185.63
2023-04-14T14:58:03.310Z,196.88
2023-04-14T14:59:03.291Z,191.25
2023-04-14T15:00:03.330Z,180.00
2023-04-14T15:01:03.285Z,180.00
2023-04-14T15:02:03.347Z,185.63
2023-04-14T15:03:03.333Z,185.63
2023-04-14T15:04:03.512Z,191.25
2023-04-14T15:05:03.291Z,196.88
2023-04-14T15:06:03.296Z,202.50
2023-04-14T15:07:03.353Z,196.88
2023-04-14T15:08:24.304Z,191.25
2023-04-14T15:09:03.309Z,196.88
2023-04-14T15:10:03.332Z,196.88
2023-04-14T15:11:03.339Z,202.50
2023-04-14T15:12:03.319Z,213.75
2023-04-14T15:13:03.362Z,219.38
2023-04-14T15:14:03.793Z,225.00
2023-04-14T15:15:03.356Z,247.50
2023-04-14T15:16:03.382Z,489.38
2023-04-14T15:17:03.396Z,860.63
2023-04-14T15:18:03.417Z,1395.00
2023-04-14T15:19:03.389Z,1231.88
2023-04-14T15:20:03.392Z,714.38
2023-04-14T15:21:03.387Z,427.50
2023-04-14T15:22:03.368Z,326.25
2023-04-14T15:23:03.421Z,781.88
2023-04-14T15:24:03.813Z,511.88
2023-04-14T15:25:03.379Z,781.88
2023-04-14T15:26:03.408Z,697.50
2023-04-14T15:27:03.402Z,292.50
2023-04-14T15:28:03.402Z,472.50
2023-04-14T15:29:03.413Z,860.63
2023-04-14T15:30:03.425Z,961.88
2023-04-14T15:31:03.428Z,956.25
2023-04-14T15:32:03.457Z,967.50
2023-04-14T15:33:03.553Z,961.88
2023-04-14T15:34:03.712Z,770.63
2023-04-14T15:35:03.418Z,506.25
2023-04-14T15:36:03.443Z,230.63
2023-04-14T15:37:03.439Z,202.50
2023-04-14T15:38:03.426Z,208.13
2023-04-14T15:39:03.461Z,191.25
2023-04-14T15:40:03.443Z,196.88
2023-04-14T15:41:04.477Z,191.25
2023-04-14T15:42:03.456Z,185.63
2023-04-14T15:43:03.441Z,180.00
2023-04-14T15:44:03.719Z,174.38
2023-04-14T15:45:03.455Z,163.13
2023-04-14T15:46:03.473Z,157.50
2023-04-14T15:47:03.448Z,151.88
2023-04-14T15:48:03.521Z,146.25
2023-04-14T15:49:03.465Z,146.25
2023-04-14T15:50:09.861Z,140.63
2023-04-14T15:51:03.432Z,140.63
2023-04-14T15:52:03.450Z,135.00
2023-04-14T15:53:03.507Z,135.00
2023-04-14T15:54:03.891Z,129.38
2023-04-14T15:55:03.453Z,129.38
2023-04-14T15:56:03.444Z,123.75
2023-04-14T15:57:03.444Z,123.75
2023-04-14T15:58:03.434Z,123.75
2023-04-14T15:59:03.467Z,123.75
2023-04-14T16:00:03.506Z,118.13
2023-04-14T16:01:03.498Z,118.13
2023-04-14T16:12:38.102Z,101.25
2023-04-14T16:13:38.057Z,101.25
2023-04-14T16:14:38.024Z,95.63
2023-04-14T16:15:38.097Z,95.63
2023-04-14T16:16:38.044Z,95.63
2023-04-14T16:17:38.176Z,95.63
2023-04-14T16:18:38.011Z,95.63
2023-04-14T16:19:38.009Z,90.00
2023-04-14T16:20:38.021Z,90.00
2023-04-14T16:21:38.013Z,90.00
2023-04-14T16:22:38.007Z,84.38
2023-04-14T16:23:38.080Z,84.38
2023-04-14T16:24:38.015Z,84.38
2023-04-14T16:25:38.005Z,84.38
2023-04-14T16:26:38.022Z,78.75
2023-04-14T16:27:38.004Z,78.75
2023-04-14T16:28:38.027Z,78.75
2023-04-14T16:29:38.030Z,78.75
2023-04-14T16:30:38.392Z,78.75
2023-04-14T16:31:38.033Z,73.13
2023-04-14T16:32:38.089Z,73.13
2023-04-14T16:33:38.014Z,73.13
2023-04-14T16:34:37.997Z,73.13
2023-04-14T16:35:37.999Z,73.13
2023-04-14T16:36:39.263Z,67.50
2023-04-14T16:37:38.038Z,67.50
2023-04-14T16:38:38.011Z,67.50
2023-04-14T16:39:38.012Z,67.50
2023-04-14T16:40:38.021Z,67.50
2023-04-14T16:41:38.044Z,67.50
2023-04-14T16:42:38.019Z,61.88
2023-04-14T16:43:38.021Z,61.88
2023-04-14T16:44:38.025Z,61.88
2023-04-14T16:45:38.031Z,61.88
2023-04-14T16:46:38.032Z,61.88
2023-04-14T16:47:38.060Z,61.88
2023-04-14T16:48:37.997Z,61.88
2023-04-14T16:49:37.995Z,61.88
2023-04-14T16:50:38.005Z,56.25
2023-04-14T16:51:37.998Z,56.25
2023-04-14T16:52:38.014Z,56.25
2023-04-14T16:53:37.970Z,56.25
2023-04-14T16:54:37.991Z,56.25
2023-04-14T16:55:37.980Z,56.25
2023-04-14T16:56:38.170Z,50.63
2023-04-14T16:57:37.985Z,50.63
2023-04-14T16:58:38.015Z,50.63
2023-04-14T16:59:37.956Z,50.63
2023-04-14T17:00:37.975Z,50.63
2023-04-14T17:01:38.259Z,50.63
2023-04-14T17:02:38.850Z,50.63
2023-04-14T17:03:38.122Z,50.63